createdAt,value
2023-07-27T00:03:30.589Z,2.77
2023-07-27T00:05:59.767Z,2.60
2023-07-27T00:08:27.714Z,2.80
2023-07-27T00:10:55.817Z,2.97
2023-07-27T00:13:22.638Z,2.63
2023-07-27T00:15:50.355Z,2.80
2023-07-27T00:18:18.227Z,2.67
2023-07-27T00:20:45.950Z,3.10
2023-07-27T00:23:15.178Z,2.63
2023-07-27T00:25:43.008Z,2.87
2023-07-27T00:28:10.777Z,2.80
2023-07-27T00:30:38.723Z,2.73
2023-07-27T00:33:06.797Z,2.60
2023-07-27T00:35:34.628Z,2.53
2023-07-27T00:38:02.629Z,2.77
2023-07-27T00:40:31.881Z,2.73
2023-07-27T00:42:59.845Z,2.53
2023-07-27T00:45:28.303Z,2.80
2023-07-27T00:47:56.266Z,2.90
2023-07-27T00:50:24.193Z,2.60
2023-07-27T00:52:51.892Z,2.87
2023-07-27T00:55:20.087Z,3.20
2023-07-27T00:57:49.305Z,2.90
2023-07-27T01:00:17.243Z,2.90
2023-07-27T01:02:45.173Z,2.97
2023-07-27T01:05:12.918Z,2.90
2023-07-27T01:07:42.649Z,2.83
2023-07-27T01:10:10.982Z,2.90
2023-07-27T01:12:41.010Z,2.73
2023-07-27T01:15:11.765Z,2.60
2023-07-27T01:17:42.152Z,2.27
2023-07-27T01:20:18.040Z,2.77
2023-07-27T01:22:58.770Z,2.60
2023-07-27T01:25:39.499Z,2.73
2023-07-27T01:28:12.985Z,2.30
2023-07-27T01:30:53.014Z,2.67
2023-07-27T01:33:24.924Z,2.70
2023-07-27T01:35:57.477Z,3.10
2023-07-27T01:38:25.186Z,2.83
2023-07-27T01:40:53.345Z,3.10
2023-07-27T01:43:21.089Z,2.67
2023-07-27T01:45:50.310Z,2.90
2023-07-27T01:48:18.020Z,2.70
2023-07-27T01:50:45.909Z,2.67
2023-07-27T01:53:13.644Z,3.20
2023-07-27T01:55:41.636Z,2.27
2023-07-27T01:58:09.360Z,2.60
2023-07-27T02:00:37.278Z,3.00
2023-07-27T02:03:06.778Z,2.57
2023-07-27T02:05:34.592Z,2.60
2023-07-27T02:08:02.548Z,3.07
2023-07-27T02:10:30.363Z,2.67
2023-07-27T02:13:00.011Z,2.87
2023-07-27T02:15:29.504Z,2.77
2023-07-27T02:18:01.162Z,2.67
2023-07-27T02:20:32.153Z,2.80
2023-07-27T02:23:00.153Z,2.60
2023-07-27T02:25:27.883Z,2.93
2023-07-27T02:27:55.786Z,2.70
2023-07-27T02:30:23.671Z,2.97
2023-07-27T02:32:51.512Z,2.40
2023-07-27T02:35:19.371Z,2.70
2023-07-27T02:37:48.852Z,2.90
2023-07-27T02:40:16.780Z,2.80
2023-07-27T02:42:44.608Z,3.00
2023-07-27T02:45:13.119Z,12.33
2023-07-27T02:47:40.998Z,3.67
2023-07-27T02:50:10.186Z,3.50
2023-07-27T02:52:38.058Z,2.77
2023-07-27T02:55:07.733Z,2.50
2023-07-27T02:57:35.592Z,2.73
2023-07-27T03:00:03.587Z,2.73
2023-07-27T03:02:31.547Z,2.90
2023-07-27T03:05:00.016Z,3.03
2023-07-27T03:07:27.763Z,2.70
2023-07-27T03:09:55.693Z,3.47
2023-07-27T03:12:24.878Z,2.83
2023-07-27T03:14:52.720Z,3.20
2023-07-27T03:17:20.744Z,2.70
2023-07-27T03:19:48.655Z,3.10
2023-07-27T03:22:16.439Z,2.70
2023-07-27T03:24:44.461Z,3.27
2023-07-27T03:27:12.227Z,3.20
2023-07-27T03:29:41.351Z,3.17
2023-07-27T03:32:09.732Z,3.20
2023-07-27T03:34:37.470Z,3.37
2023-07-27T03:37:05.974Z,3.07
2023-07-27T03:39:34.118Z,3.27
2023-07-27T03:42:02.170Z,3.57
2023-07-27T03:44:30.019Z,3.23
2023-07-27T03:46:59.406Z,4.10
2023-07-27T03:49:27.164Z,3.33
2023-07-27T03:51:55.005Z,3.40
2023-07-27T03:54:22.783Z,3.80
2023-07-27T03:56:50.644Z,3.40
2023-07-27T03:59:18.377Z,3.33
2023-07-27T04:01:46.119Z,3.90
2023-07-27T04:04:15.438Z,3.40
2023-07-27T04:06:43.423Z,3.53
2023-07-27T04:09:11.454Z,3.83
2023-07-27T04:11:39.268Z,3.20
2023-07-27T04:14:07.149Z,3.57
2023-07-27T04:16:35.120Z,3.80
2023-07-27T04:19:03.192Z,4.00
2023-07-27T04:21:32.249Z,3.67
2023-07-27T04:24:00.205Z,3.60
2023-07-27T04:26:27.996Z,3.70
2023-07-27T04:28:55.953Z,3.70
2023-07-27T04:31:23.684Z,3.90
2023-07-27T04:33:51.494Z,3.90
2023-07-27T04:36:19.243Z,3.97
2023-07-27T04:38:48.887Z,3.80
2023-07-27T04:41:16.636Z,4.27
2023-07-27T04:43:44.484Z,4.40
2023-07-27T04:46:12.247Z,3.70
2023-07-27T04:48:40.129Z,3.47
2023-07-27T04:51:07.872Z,3.87
2023-07-27T04:53:35.903Z,4.30
2023-07-27T04:56:05.250Z,3.80
2023-07-27T04:58:33.136Z,4.20
2023-07-27T05:01:01.275Z,3.87
2023-07-27T05:03:29.199Z,4.10
2023-07-27T05:05:57.030Z,4.50
2023-07-27T05:08:24.989Z,4.37
2023-07-27T05:10:52.775Z,4.50
2023-07-27T05:13:22.112Z,3.70
2023-07-27T05:15:50.326Z,4.27
2023-07-27T05:18:18.260Z,3.87
2023-07-27T05:20:45.976Z,3.67
2023-07-27T05:23:14.865Z,3.43
2023-07-27T05:25:42.570Z,3.90
2023-07-27T05:28:10.449Z,3.70
2023-07-27T05:30:39.556Z,3.00
2023-07-27T05:33:08.957Z,3.30
2023-07-27T05:35:36.695Z,3.20
2023-07-27T05:38:04.752Z,2.33
2023-07-27T05:40:32.530Z,2.97
2023-07-27T05:43:00.368Z,2.83
2023-07-27T05:45:28.104Z,3.40
2023-07-27T05:47:57.386Z,3.70
2023-07-27T05:50:25.644Z,3.37
2023-07-27T05:52:53.465Z,3.10
2023-07-27T05:55:21.306Z,2.77
2023-07-27T05:57:58.133Z,2.57
2023-07-27T06:00:29.662Z,3.10
2023-07-27T06:05:26.606Z,3.20
2023-07-27T06:07:54.504Z,3.27
2023-07-27T06:10:22.304Z,3.47
2023-07-27T06:12:50.035Z,3.23
2023-07-27T06:15:17.956Z,2.93
2023-07-27T06:17:46.096Z,2.93
2023-07-27T06:20:14.030Z,2.80
2023-07-27T06:22:43.167Z,3.10
2023-07-27T06:25:11.286Z,3.23
2023-07-27T06:27:39.087Z,2.80
2023-07-27T06:30:09.637Z,2.40
2023-07-27T06:32:37.765Z,2.63
2023-07-27T06:35:06.394Z,2.80
2023-07-27T06:37:34.181Z,2.60
2023-07-27T06:40:43.748Z,8.70
2023-07-27T06:43:11.511Z,2.70
2023-07-27T06:45:39.621Z,2.13
2023-07-27T06:48:08.047Z,2.37
2023-07-27T06:50:35.859Z,2.50
2023-07-27T06:53:04.831Z,2.50
2023-07-27T06:55:34.004Z,2.80
2023-07-27T06:58:02.558Z,2.17
2023-07-27T07:00:30.428Z,2.30
2023-07-27T07:02:58.429Z,2.40
2023-07-27T07:05:26.373Z,2.37
2023-07-27T07:07:54.193Z,2.70
2023-07-27T07:10:22.726Z,2.30
2023-07-27T07:12:52.104Z,2.53
2023-07-27T07:15:20.028Z,2.23
2023-07-27T07:17:48.981Z,1.90
2023-07-27T07:20:17.017Z,2.00
2023-07-27T07:22:44.770Z,1.90
2023-07-27T07:25:12.709Z,2.10
2023-07-27T07:27:40.536Z,1.90
2023-07-27T07:30:10.854Z,2.03
2023-07-27T07:32:38.697Z,1.90
2023-07-27T07:35:07.533Z,2.20
2023-07-27T07:37:36.364Z,2.00
2023-07-27T07:40:04.727Z,1.80
2023-07-27T07:42:33.361Z,2.20
2023-07-27T07:45:01.071Z,2.30
2023-07-27T07:47:30.593Z,2.47
2023-07-27T07:49:59.451Z,2.30
2023-07-27T07:52:27.403Z,2.53
2023-07-27T07:54:55.108Z,2.83
2023-07-27T07:57:22.935Z,2.17
2023-07-27T07:59:50.676Z,2.37
2023-07-27T08:02:18.508Z,2.50
2023-07-27T08:04:47.716Z,2.73
2023-07-27T08:07:15.447Z,3.10
2023-07-27T08:09:43.460Z,3.00
2023-07-27T08:12:11.226Z,2.40
2023-07-27T08:14:39.135Z,2.70
2023-07-27T08:17:08.019Z,2.90
2023-07-27T08:19:37.023Z,2.60
2023-07-27T08:22:07.262Z,2.77
2023-07-27T08:24:35.195Z,2.40
2023-07-27T08:27:05.588Z,2.00
2023-07-27T08:29:35.261Z,1.60
2023-07-27T08:32:03.573Z,1.47
2023-07-27T08:34:31.381Z,1.70
2023-07-27T08:36:59.210Z,1.90
2023-07-27T08:39:28.995Z,1.93
2023-07-27T08:41:56.885Z,1.63
2023-07-27T08:44:24.723Z,2.10
2023-07-27T08:46:52.611Z,2.10
2023-07-27T08:49:20.703Z,2.07
2023-07-27T08:51:48.953Z,2.20
2023-07-27T08:54:16.947Z,1.77
2023-07-27T08:56:46.396Z,2.30
2023-07-27T08:59:14.276Z,1.93
2023-07-27T09:01:42.314Z,2.47
2023-07-27T09:04:10.176Z,2.27
2023-07-27T09:06:47.547Z,2.00
2023-07-27T09:09:16.571Z,2.27
2023-07-27T09:11:47.171Z,1.80
2023-07-27T09:14:15.258Z,2.00
2023-07-27T09:16:59.237Z,1.83
2023-07-27T09:19:28.600Z,2.00
2023-07-27T09:21:58.615Z,2.87
2023-07-27T09:24:26.823Z,1.83
2023-07-27T09:26:56.211Z,1.63
2023-07-27T09:29:24.129Z,1.50
2023-07-27T09:31:53.253Z,1.33
2023-07-27T09:34:21.896Z,2.10
2023-07-27T09:36:49.700Z,1.63
2023-07-27T09:39:17.681Z,1.40
2023-07-27T09:41:46.104Z,1.40
2023-07-27T09:44:16.593Z,1.77
2023-07-27T09:46:46.107Z,1.77
2023-07-27T09:49:14.347Z,1.50
2023-07-27T09:51:42.320Z,1.77
2023-07-27T09:54:10.366Z,1.50
2023-07-27T09:56:39.565Z,1.40
2023-07-27T09:59:08.195Z,1.33
2023-07-27T10:01:37.650Z,1.50
2023-07-27T10:04:05.882Z,1.40
2023-07-27T10:06:34.234Z,1.47
2023-07-27T10:09:02.323Z,1.40
2023-07-27T10:11:31.420Z,1.43
2023-07-27T10:13:59.633Z,1.27
2023-07-27T10:16:29.252Z,1.20
2023-07-27T10:18:58.546Z,1.20
2023-07-27T10:21:28.281Z,1.10
2023-07-27T10:23:57.886Z,1.33
2023-07-27T10:26:53.313Z,1.10
2023-07-27T10:29:21.975Z,1.30
2023-07-27T10:32:02.188Z,1.40
2023-07-27T10:34:36.885Z,1.50
2023-07-27T10:37:09.554Z,2.27
2023-07-27T10:39:43.638Z,2.10
2023-07-27T10:42:13.401Z,2.27
2023-07-27T10:44:42.612Z,2.50
2023-07-27T10:47:10.685Z,3.10
2023-07-27T10:49:43.499Z,3.10
2023-07-27T10:52:12.104Z,3.30
2023-07-27T10:54:40.845Z,2.47
2023-07-27T10:57:09.108Z,3.03
2023-07-27T10:59:38.884Z,3.13
2023-07-27T11:02:08.482Z,3.90
2023-07-27T11:04:36.758Z,4.60
2023-07-27T11:07:06.560Z,5.37
2023-07-27T11:09:34.669Z,5.67
2023-07-27T11:12:03.080Z,5.60
2023-07-27T11:14:31.207Z,5.87
2023-07-27T11:16:59.352Z,5.90
2023-07-27T11:19:47.319Z,5.77
2023-07-27T11:22:17.082Z,5.80
2023-07-27T11:24:45.226Z,5.67
2023-07-27T11:27:13.970Z,6.30
2023-07-27T11:29:44.588Z,5.27
2023-07-27T11:32:12.782Z,4.60
2023-07-27T11:34:41.893Z,4.50
2023-07-27T11:37:09.817Z,4.40
2023-07-27T11:39:39.446Z,4.20
2023-07-27T11:42:12.081Z,4.30
2023-07-27T11:44:40.746Z,4.90
2023-07-27T11:47:09.240Z,4.33
2023-07-27T11:49:37.155Z,3.77
2023-07-27T11:52:08.344Z,3.10
2023-07-27T11:54:42.168Z,3.33
2023-07-27T11:57:10.677Z,2.90
2023-07-27T11:59:39.185Z,2.50
2023-07-27T12:02:07.396Z,2.70
2023-07-27T12:04:35.438Z,2.30
2023-07-27T12:07:03.741Z,2.33
2023-07-27T12:09:32.684Z,2.77
2023-07-27T12:12:03.115Z,2.90
2023-07-27T12:14:34.697Z,2.83
2023-07-27T12:25:38.217Z,3.20
2023-07-27T12:27:48.561Z,3.43
2023-07-27T12:32:47.262Z,3.70
2023-07-27T12:37:48.524Z,3.50
2023-07-27T12:40:16.610Z,3.10
2023-07-27T12:42:44.401Z,3.37
2023-07-27T12:45:14.990Z,2.90
2023-07-27T12:47:45.123Z,3.13
2023-07-27T12:50:14.128Z,3.20
2023-07-27T12:52:42.431Z,2.83
2023-07-27T12:55:10.838Z,2.53
2023-07-27T12:57:38.674Z,3.30
2023-07-27T13:00:09.431Z,3.63
2023-07-27T13:02:38.636Z,3.33
2023-07-27T13:05:13.362Z,3.07
2023-07-27T13:07:44.717Z,2.83
2023-07-27T13:10:12.561Z,2.80
2023-07-27T13:12:40.366Z,3.10
2023-07-27T13:15:08.994Z,2.17
2023-07-27T13:17:40.930Z,2.00
2023-07-27T13:20:10.524Z,1.30
2023-07-27T13:22:38.650Z,1.50
2023-07-27T13:25:07.208Z,2.00
2023-07-27T13:27:35.107Z,1.30
2023-07-27T13:30:05.513Z,1.20
2023-07-27T13:32:33.728Z,1.37
2023-07-27T13:35:03.163Z,0.90
2023-07-27T13:37:33.327Z,1.30
2023-07-27T13:40:01.277Z,1.10
2023-07-27T13:42:29.077Z,1.50
2023-07-27T13:44:56.950Z,1.60
2023-07-27T13:47:24.870Z,1.53
2023-07-27T13:49:52.679Z,1.83
2023-07-27T13:52:21.917Z,3.67
2023-07-27T13:54:49.667Z,1.50
2023-07-27T13:57:17.514Z,2.40
2023-07-27T13:59:45.206Z,1.80
2023-07-27T14:02:13.252Z,1.60
2023-07-27T14:04:41.046Z,1.30
2023-07-27T14:07:08.894Z,1.10
2023-07-27T14:09:38.194Z,0.97
2023-07-27T14:12:06.869Z,0.70
2023-07-27T14:14:34.628Z,0.97
2023-07-27T14:17:02.377Z,1.30
2023-07-27T14:19:30.335Z,1.02
2023-07-27T14:21:58.131Z,1.58
2023-07-27T14:24:25.865Z,1.20
2023-07-27T14:26:55.157Z,0.80
2023-07-27T14:29:25.093Z,0.93
2023-07-27T14:31:54.096Z,1.40
2023-07-27T14:34:21.998Z,1.20
2023-07-27T14:36:49.808Z,1.20
2023-07-27T14:39:17.617Z,1.92
2023-07-27T14:41:45.451Z,1.65
2023-07-27T14:44:15.671Z,2.00
2023-07-27T14:46:43.388Z,1.80
2023-07-27T14:49:11.255Z,2.00
2023-07-27T14:51:39.092Z,1.10
2023-07-27T14:54:09.968Z,1.50
2023-07-27T14:56:37.908Z,1.90
2023-07-27T14:59:09.471Z,1.33
2023-07-27T15:06:43.778Z,1.38
2023-07-27T15:09:11.840Z,1.70
2023-07-27T15:11:39.733Z,1.52
2023-07-27T15:14:07.662Z,1.17
2023-07-27T15:16:35.812Z,1.63
2023-07-27T15:19:05.295Z,1.17
2023-07-27T15:21:33.132Z,1.08
2023-07-27T15:24:00.937Z,1.20
2023-07-27T15:26:30.639Z,1.42
2023-07-27T15:28:58.434Z,1.30
2023-07-27T15:31:27.096Z,2.22
2023-07-27T15:33:54.857Z,1.38
2023-07-27T15:36:24.057Z,2.92
2023-07-27T15:38:51.969Z,2.73
2023-07-27T15:41:19.760Z,2.03
2023-07-27T15:43:47.597Z,1.73
2023-07-27T15:46:16.054Z,1.60
2023-07-27T15:48:44.151Z,1.48
2023-07-27T15:51:11.892Z,1.80
2023-07-27T15:53:42.691Z,2.00
2023-07-27T15:56:10.432Z,2.97
2023-07-27T15:58:38.571Z,2.05
2023-07-27T16:01:06.547Z,1.90
2023-07-27T16:03:34.519Z,2.37
2023-07-27T16:06:05.579Z,2.20
2023-07-27T16:08:33.364Z,1.83
2023-07-27T16:11:02.429Z,1.77
2023-07-27T16:13:30.203Z,2.08
2023-07-27T16:15:58.181Z,2.30
2023-07-27T16:18:26.021Z,2.53
2023-07-27T16:20:53.774Z,1.90
2023-07-27T16:23:21.648Z,1.47
2023-07-27T16:25:49.538Z,1.10
2023-07-27T16:28:18.942Z,1.33
2023-07-27T16:30:46.840Z,1.53
2023-07-27T16:33:14.596Z,1.40
2023-07-27T16:35:44.400Z,1.40
2023-07-27T16:38:12.325Z,1.37
2023-07-27T16:40:40.235Z,1.43
2023-07-27T16:43:08.050Z,1.90
2023-07-27T16:45:40.340Z,1.57
2023-07-27T16:48:08.219Z,1.58
2023-07-27T16:50:36.983Z,2.10
2023-07-27T16:53:04.912Z,2.30
2023-07-27T16:55:34.496Z,2.00
2023-07-27T16:58:02.412Z,2.73
2023-07-27T17:00:30.196Z,2.47
2023-07-27T17:02:59.455Z,2.10
2023-07-27T17:05:27.337Z,2.10
2023-07-27T17:07:55.234Z,2.60
2023-07-27T17:10:23.011Z,2.10
2023-07-27T17:12:50.875Z,2.53
2023-07-27T17:15:18.811Z,2.80
2023-07-27T17:17:46.693Z,2.60
2023-07-27T17:20:18.977Z,2.53
2023-07-27T17:22:46.773Z,2.27
2023-07-27T17:25:14.568Z,2.63
2023-07-27T17:27:43.722Z,2.60
2023-07-27T17:30:12.980Z,2.67
2023-07-27T17:32:42.124Z,2.57
2023-07-27T17:35:11.350Z,2.00
2023-07-27T17:37:40.550Z,1.93
2023-07-27T17:40:09.870Z,1.90
2023-07-27T17:42:37.638Z,1.60
2023-07-27T17:45:06.236Z,1.40
2023-07-27T17:47:34.041Z,1.50
2023-07-27T17:50:02.039Z,1.80
2023-07-27T17:52:29.955Z,1.80
2023-07-27T17:54:59.058Z,1.20
2023-07-27T17:57:27.107Z,2.03
2023-07-27T17:59:55.231Z,1.73
2023-07-27T18:02:23.461Z,1.50
2023-07-27T18:07:28.499Z,1.93
2023-07-27T18:09:56.451Z,2.40
2023-07-27T18:12:25.857Z,3.70
2023-07-27T18:14:53.762Z,2.03
2023-07-27T18:17:24.302Z,1.97
2023-07-27T18:19:52.197Z,2.10
2023-07-27T18:22:20.277Z,3.73
2023-07-27T18:24:48.587Z,2.50
2023-07-27T18:27:16.497Z,3.07
2023-07-27T18:29:46.885Z,2.70
2023-07-27T18:32:14.848Z,3.00
2023-07-27T18:34:42.905Z,2.53
2023-07-27T18:37:13.853Z,3.60
2023-07-27T18:39:41.948Z,2.33
2023-07-27T18:42:09.987Z,2.57
2023-07-27T18:44:37.834Z,2.60
2023-07-27T18:47:07.575Z,4.53
2023-07-27T18:49:35.682Z,2.10
2023-07-27T18:52:03.720Z,3.70
2023-07-27T18:54:31.709Z,2.57
2023-07-27T18:56:59.629Z,1.93
2023-07-27T18:59:27.631Z,2.53
2023-07-27T19:01:55.448Z,3.03
2023-07-27T19:04:24.773Z,2.33
2023-07-27T19:06:53.830Z,2.30
2023-07-27T19:09:21.764Z,2.10
2023-07-27T19:11:49.649Z,2.80
2023-07-27T19:14:19.798Z,2.27
2023-07-27T19:16:47.993Z,2.30
2023-07-27T19:19:15.960Z,3.27
2023-07-27T19:21:45.716Z,2.10
2023-07-27T19:24:15.869Z,1.80
2023-07-27T19:26:44.077Z,1.70
2023-07-27T19:29:13.074Z,2.37
2023-07-27T19:31:40.975Z,1.60
2023-07-27T19:34:09.086Z,1.80
2023-07-27T19:36:37.458Z,2.37
2023-07-27T19:39:06.815Z,1.90
2023-07-27T19:41:34.678Z,1.80
2023-07-27T19:44:03.073Z,2.10
2023-07-27T19:46:30.956Z,1.70
2023-07-27T19:48:58.836Z,2.10
2023-07-27T19:51:26.947Z,2.00
2023-07-27T19:53:54.926Z,2.63
2023-07-27T19:56:24.541Z,2.13
2023-07-27T19:58:52.927Z,1.73
2023-07-27T20:01:21.011Z,2.07
2023-07-27T20:03:49.616Z,2.50
2023-07-27T20:06:17.754Z,2.60
2023-07-27T20:08:48.350Z,2.23
2023-07-27T20:11:17.595Z,2.20
2023-07-27T20:13:47.541Z,2.60
2023-07-27T20:16:16.702Z,2.83
2023-07-27T20:18:46.649Z,3.23
2023-07-27T20:21:15.096Z,3.40
2023-07-27T20:23:42.997Z,3.30
2023-07-27T20:26:11.207Z,3.03
2023-07-27T20:28:39.317Z,3.40
2023-07-27T20:31:09.816Z,3.60
2023-07-27T20:33:37.919Z,3.03
2023-07-27T20:36:06.248Z,3.27
2023-07-27T20:38:34.451Z,3.23
2023-07-27T20:41:05.380Z,3.80
2023-07-27T20:43:33.438Z,3.37
2023-07-27T20:46:05.237Z,3.27
2023-07-27T20:48:37.012Z,3.00
2023-07-27T20:51:06.560Z,3.10
2023-07-27T20:53:35.289Z,3.37
2023-07-27T20:56:03.166Z,3.10
2023-07-27T20:58:30.971Z,3.00
2023-07-27T21:01:01.873Z,2.73
2023-07-27T21:03:31.660Z,3.30
2023-07-27T21:06:02.546Z,2.83
2023-07-27T21:08:30.402Z,2.40
2023-07-27T21:10:58.254Z,2.70
2023-07-27T21:13:26.077Z,2.27
2023-07-27T21:16:00.897Z,2.60
2023-07-27T21:18:28.875Z,2.10
2023-07-27T21:20:56.585Z,1.70
2023-07-27T21:23:25.914Z,2.13
2023-07-27T21:25:58.477Z,2.30
2023-07-27T21:28:26.441Z,1.73
2023-07-27T21:30:57.238Z,1.87
2023-07-27T21:33:28.531Z,1.97
2023-07-27T21:35:57.031Z,1.70
2023-07-27T21:38:26.200Z,2.00
2023-07-27T21:40:54.105Z,1.83
2023-07-27T21:43:21.923Z,1.67
2023-07-27T21:45:49.784Z,2.03
2023-07-27T21:48:17.770Z,2.10
2023-07-27T21:50:45.860Z,1.83
2023-07-27T21:53:13.616Z,1.60
2023-07-27T21:55:42.732Z,1.50
2023-07-27T21:58:10.567Z,1.87
2023-07-27T22:00:38.367Z,1.93
2023-07-27T22:03:06.314Z,2.00
2023-07-27T22:05:35.172Z,2.83
2023-07-27T22:08:03.555Z,2.33
2023-07-27T22:10:31.411Z,2.90
2023-07-27T22:13:03.119Z,2.60
2023-07-27T22:15:31.010Z,2.50
2023-07-27T22:17:58.796Z,2.10
2023-07-27T22:20:27.996Z,2.23
2023-07-27T22:22:55.731Z,2.87
2023-07-27T22:25:23.718Z,2.00
2023-07-27T22:27:51.472Z,2.20
2023-07-27T22:30:21.131Z,2.20
2023-07-27T22:32:48.978Z,2.20
2023-07-27T22:35:16.906Z,1.93
2023-07-27T22:37:44.840Z,1.70
2023-07-27T22:40:13.016Z,2.10
2023-07-27T22:42:40.780Z,2.00
2023-07-27T22:45:09.768Z,2.23
2023-07-27T22:47:39.003Z,2.10
2023-07-27T22:50:07.626Z,2.80
2023-07-27T22:52:36.445Z,3.20
2023-07-27T22:55:04.352Z,3.17
2023-07-27T22:57:32.169Z,3.47
2023-07-27T22:59:59.858Z,3.30
2023-07-27T23:02:27.713Z,3.10
2023-07-27T23:04:56.833Z,3.20
2023-07-27T23:07:24.709Z,2.73
2023-07-27T23:09:52.480Z,2.67
2023-07-27T23:12:20.386Z,2.13
2023-07-27T23:14:48.106Z,2.40
2023-07-27T23:17:16.056Z,2.70
2023-07-27T23:19:44.096Z,2.87
2023-07-27T23:22:13.205Z,2.70
2023-07-27T23:24:43.108Z,3.00
2023-07-27T23:27:10.873Z,2.77
2023-07-27T23:29:38.614Z,2.50
2023-07-27T23:32:07.072Z,2.73
2023-07-27T23:34:34.821Z,2.90
2023-07-27T23:37:05.157Z,2.90
2023-07-27T23:39:34.267Z,2.93
2023-07-27T23:42:02.052Z,3.43
2023-07-27T23:44:29.776Z,2.80
2023-07-27T23:46:57.557Z,3.50
2023-07-27T23:49:25.274Z,3.83
2023-07-27T23:51:53.347Z,3.40
2023-07-27T23:54:21.133Z,3.63
2023-07-27T23:56:50.375Z,3.93
2023-07-27T23:59:18.123Z,4.03
